Brushy Prairie, Indiana
Current Conditions -  °F | °C
As of 7:54 AM on Wednesday 26 Nov 2014 (Local Time) from KIRS Reporting Station
Overcast Overcast  
Wind Chill: 25°   Ceiling: 1700
Heat Index: 25°   Visibility: 10mi
Dew Point: 19°   Wind: 3mph
Humidity: 80%   Direction: 60°ENE
Pressure: 30.14"   Gusts: NA
Location:  41.6561°N, 85.3683°W
Report Text: KIRS 261254Z AUTO 06003KT 10SM OVC017 M04/M07 A3014 RMK AO2
Loading
Personal Weather Stations






























Interactive Weather Map New forecast layout! Learn more

10-Day Weather Forecast

Advertisements
Track Severe Weather on mobile